createdAt,value
2018-11-12T00:01:27.970Z,48.30
2018-11-12T00:03:56.184Z,48.20
2018-11-12T00:06:24.321Z,49.30
2018-11-12T00:08:52.470Z,49.40
2018-11-12T00:11:20.641Z,49.60
2018-11-12T00:13:48.794Z,49.80
2018-11-12T00:16:17.149Z,50.50
2018-11-12T00:18:45.321Z,50.10
2018-11-12T00:21:13.457Z,49.90
2018-11-12T00:23:41.649Z,49.50
2018-11-12T00:26:09.852Z,48.60
2018-11-12T00:28:38.037Z,48.80
2018-11-12T00:31:06.213Z,48.60
2018-11-12T00:33:34.379Z,48.70
2018-11-12T00:36:02.520Z,48.40
2018-11-12T00:38:30.638Z,48.80
2018-11-12T00:40:58.769Z,49.00
2018-11-12T00:43:26.963Z,49.50
2018-11-12T00:45:55.125Z,50.10
2018-11-12T00:48:23.957Z,49.90
2018-11-12T00:50:52.241Z,50.30
2018-11-12T00:53:20.959Z,50.80
2018-11-12T00:55:49.129Z,51.20
2018-11-12T00:58:17.286Z,52.20
2018-11-12T01:00:45.459Z,53.00
2018-11-12T01:03:13.617Z,53.60
2018-11-12T01:05:41.802Z,54.20
2018-11-12T01:08:09.992Z,53.40
2018-11-12T01:10:38.113Z,53.50
2018-11-12T01:13:06.257Z,53.30
2018-11-12T01:15:34.369Z,52.20
2018-11-12T01:18:02.593Z,51.60
2018-11-12T01:20:30.725Z,50.30
2018-11-12T01:22:58.905Z,49.40
2018-11-12T01:25:27.150Z,48.80
2018-11-12T01:27:55.365Z,48.50
2018-11-12T01:30:23.565Z,47.70
2018-11-12T01:32:51.760Z,47.70
2018-11-12T01:35:19.899Z,47.70
2018-11-12T01:37:48.057Z,47.60
2018-11-12T01:40:16.747Z,47.70
2018-11-12T01:42:45.177Z,47.20
2018-11-12T01:45:16.797Z,47.10
2018-11-12T01:47:46.157Z,48.00
2018-11-12T01:50:14.764Z,48.50
2018-11-12T01:52:43.797Z,47.80
2018-11-12T01:55:13.157Z,47.40
2018-11-12T01:57:41.334Z,47.80
2018-11-12T02:00:13.494Z,49.00
2018-11-12T02:02:42.328Z,49.20
2018-11-12T02:05:10.970Z,49.50
2018-11-12T02:07:39.117Z,49.80
2018-11-12T02:10:08.963Z,49.40
2018-11-12T02:12:37.457Z,48.70
2018-11-12T02:15:12.113Z,48.50
2018-11-12T02:17:40.423Z,48.50
2018-11-12T02:20:10.396Z,48.00
2018-11-12T02:22:38.510Z,48.00
2018-11-12T02:25:07.801Z,48.00
2018-11-12T02:27:36.229Z,48.00
2018-11-12T02:30:06.678Z,48.50
2018-11-12T02:32:34.826Z,48.00
2018-11-12T02:35:04.946Z,48.00
2018-11-12T02:37:33.094Z,48.10
2018-11-12T02:40:01.311Z,48.00
2018-11-12T02:42:29.573Z,48.60
2018-11-12T02:44:57.729Z,48.00
2018-11-12T02:47:25.958Z,48.00
2018-11-12T02:49:54.108Z,48.00
2018-11-12T02:52:22.246Z,47.90
2018-11-12T02:54:50.445Z,47.30
2018-11-12T02:57:18.671Z,47.00
2018-11-12T02:59:46.813Z,46.70
2018-11-12T03:02:15.626Z,46.70
2018-11-12T03:04:43.783Z,46.80
2018-11-12T03:07:12.894Z,47.20
2018-11-12T03:09:41.050Z,47.50
2018-11-12T03:12:09.222Z,47.50
2018-11-12T03:14:38.202Z,47.50
2018-11-12T03:17:06.323Z,47.00
2018-11-12T03:19:34.584Z,47.20
2018-11-12T03:22:02.746Z,46.90
2018-11-12T03:24:30.947Z,46.70
2018-11-12T03:26:59.104Z,46.50
2018-11-12T03:29:27.279Z,46.50
2018-11-12T03:31:56.418Z,46.00
2018-11-12T03:34:24.589Z,45.50
2018-11-12T03:36:52.778Z,45.50
2018-11-12T03:39:20.958Z,45.20
2018-11-12T03:41:49.075Z,45.30
2018-11-12T03:44:17.249Z,45.10
2018-11-12T03:46:45.430Z,44.20
2018-11-12T03:49:13.848Z,43.70
2018-11-12T03:51:42.028Z,42.20
2018-11-12T03:54:10.233Z,42.30
2018-11-12T03:56:38.377Z,41.70
2018-11-12T03:59:06.606Z,42.30
2018-11-12T04:01:40.001Z,41.00
2018-11-12T04:04:08.212Z,40.80
2018-11-12T04:06:36.365Z,40.60
2018-11-12T04:09:06.864Z,40.80
2018-11-12T04:11:35.313Z,41.20
2018-11-12T04:14:03.497Z,41.50
2018-11-12T04:16:31.633Z,41.70
2018-11-12T04:18:59.817Z,42.00
2018-11-12T04:21:27.990Z,42.00
2018-11-12T04:23:56.197Z,42.20
2018-11-12T04:26:24.326Z,41.90
2018-11-12T04:28:52.451Z,41.50
2018-11-12T04:31:20.594Z,41.00
2018-11-12T04:33:48.759Z,40.40
2018-11-12T04:36:16.961Z,40.10
2018-11-12T04:38:45.123Z,39.50
2018-11-12T04:41:13.337Z,39.10
2018-11-12T04:43:41.506Z,38.40
2018-11-12T04:46:09.647Z,37.80
2018-11-12T04:48:37.841Z,37.80
2018-11-12T04:51:06.012Z,37.80
2018-11-12T04:53:34.250Z,37.60
2018-11-12T04:56:02.365Z,37.30
2018-11-12T04:58:30.537Z,36.00
2018-11-12T05:00:58.678Z,35.50
2018-11-12T05:03:26.797Z,34.90
2018-11-12T05:05:55.001Z,34.90
2018-11-12T05:08:23.192Z,34.90
2018-11-12T05:10:51.298Z,34.80
2018-11-12T05:13:19.448Z,34.90
2018-11-12T05:15:47.611Z,35.60
2018-11-12T05:18:15.842Z,35.20
2018-11-12T05:20:44.060Z,35.60
2018-11-12T05:23:12.215Z,35.70
2018-11-12T05:25:40.374Z,35.50
2018-11-12T05:28:08.555Z,35.40
2018-11-12T05:30:36.713Z,35.00
2018-11-12T05:33:05.069Z,35.60
2018-11-12T05:35:33.229Z,35.40
2018-11-12T05:38:01.389Z,35.50
2018-11-12T05:40:30.177Z,35.40
2018-11-12T05:42:58.674Z,36.10
2018-11-12T05:45:28.053Z,36.10
2018-11-12T05:47:56.323Z,36.20
2018-11-12T05:50:26.668Z,36.30
2018-11-12T05:52:56.265Z,36.90
2018-11-12T05:55:25.662Z,36.40
2018-11-12T05:57:53.830Z,36.70
2018-11-12T06:00:24.550Z,36.60
2018-11-12T06:02:52.709Z,36.50
2018-11-12T06:05:20.875Z,36.60
2018-11-12T06:07:49.037Z,36.50
2018-11-12T06:10:18.508Z,36.80
2018-11-12T06:12:46.869Z,36.70
2018-11-12T06:15:15.245Z,36.90
2018-11-12T06:17:44.137Z,36.70
2018-11-12T06:20:14.677Z,36.90
2018-11-12T06:22:42.995Z,36.70
2018-11-12T06:25:12.346Z,37.00
2018-11-12T06:27:40.518Z,37.20
2018-11-12T06:30:13.301Z,37.20
2018-11-12T06:32:41.554Z,37.20
2018-11-12T06:35:10.825Z,37.60
2018-11-12T06:37:39.034Z,37.60
2018-11-12T06:40:08.917Z,37.70
2018-11-12T06:42:37.926Z,38.00
2018-11-12T06:45:08.593Z,38.20
2018-11-12T06:47:36.841Z,38.30
2018-11-12T06:50:07.182Z,38.30
2018-11-12T06:52:35.349Z,38.30
2018-11-12T06:55:08.193Z,38.00
2018-11-12T06:57:36.509Z,38.10
2018-11-12T07:00:07.145Z,37.90
2018-11-12T07:02:36.986Z,37.60
2018-11-12T07:05:06.873Z,37.10
2018-11-12T07:07:35.045Z,37.00
2018-11-12T07:10:03.494Z,37.10
2018-11-12T07:12:31.614Z,36.60
2018-11-12T07:14:59.797Z,36.30
2018-11-12T07:17:27.921Z,37.30
2018-11-12T07:19:56.093Z,36.20
2018-11-12T07:22:24.255Z,36.20
2018-11-12T07:24:52.577Z,36.20
2018-11-12T07:27:20.840Z,36.00
2018-11-12T07:29:49.320Z,35.80
2018-11-12T07:32:17.585Z,35.90
2018-11-12T07:34:45.760Z,35.90
2018-11-12T07:37:13.946Z,35.60
2018-11-12T07:39:42.109Z,34.90
2018-11-12T07:42:10.434Z,34.80
2018-11-12T07:44:38.753Z,34.90
2018-11-12T07:47:07.085Z,34.90
2018-11-12T07:49:36.086Z,34.40
2018-11-12T07:52:04.719Z,34.60
2018-11-12T07:54:33.217Z,34.00
2018-11-12T07:57:01.438Z,34.10
2018-11-12T07:59:29.765Z,34.10
2018-11-12T08:01:57.962Z,34.50
2018-11-12T08:04:26.117Z,34.20
2018-11-12T08:06:54.282Z,34.50
2018-11-12T08:09:22.472Z,34.00
2018-11-12T08:11:50.606Z,33.50
2018-11-12T08:14:19.001Z,33.20
2018-11-12T08:16:47.351Z,33.60
2018-11-12T08:19:15.462Z,33.00
2018-11-12T08:21:43.706Z,33.30
2018-11-12T08:24:11.918Z,32.90
2018-11-12T08:26:40.186Z,36.80
2018-11-12T08:29:08.326Z,32.90
2018-11-12T08:31:36.513Z,32.00
2018-11-12T08:34:04.910Z,32.10
2018-11-12T08:36:33.136Z,32.10
2018-11-12T08:39:01.257Z,32.00
2018-11-12T08:41:29.572Z,31.50
2018-11-12T08:43:57.770Z,31.50
2018-11-12T08:46:25.893Z,32.60
2018-11-12T08:48:54.101Z,31.20
2018-11-12T08:51:22.241Z,31.70
2018-11-12T08:53:50.486Z,31.80
2018-11-12T08:56:18.604Z,32.00
2018-11-12T08:58:46.983Z,32.50
2018-11-12T09:01:15.129Z,32.60
2018-11-12T09:03:43.439Z,32.00
2018-11-12T09:06:11.621Z,32.30
2018-11-12T09:08:39.819Z,32.50
2018-11-12T09:11:08.007Z,32.60
2018-11-12T09:13:36.255Z,32.70
2018-11-12T09:16:04.660Z,33.20
2018-11-12T09:18:32.822Z,33.20
2018-11-12T09:21:00.937Z,33.30
2018-11-12T09:23:29.140Z,33.30
2018-11-12T09:25:57.321Z,33.30
2018-11-12T09:28:25.496Z,33.50
2018-11-12T09:30:55.113Z,33.20
2018-11-12T09:33:21.839Z,32.90
2018-11-12T09:35:49.961Z,32.00
2018-11-12T09:38:18.163Z,32.70
2018-11-12T09:40:46.576Z,32.30
2018-11-12T09:43:15.103Z,31.90
2018-11-12T09:45:43.289Z,32.60
2018-11-12T09:48:11.466Z,32.10
2018-11-12T09:50:39.606Z,31.20
2018-11-12T09:53:07.765Z,31.70
2018-11-12T09:55:35.961Z,31.10
2018-11-12T09:58:05.374Z,31.50
2018-11-12T10:00:33.942Z,31.50
2018-11-12T10:03:03.076Z,31.10
2018-11-12T10:05:31.523Z,31.50
2018-11-12T10:08:02.163Z,31.10
2018-11-12T10:10:40.320Z,31.90
2018-11-12T10:13:10.179Z,31.20
2018-11-12T10:15:39.259Z,31.20
2018-11-12T10:18:07.356Z,31.60
2018-11-12T10:20:32.928Z,31.40
2018-11-12T10:23:01.050Z,32.10
2018-11-12T10:25:29.201Z,32.00
2018-11-12T10:27:57.369Z,31.80
2018-11-12T10:30:25.519Z,32.30
2018-11-12T10:32:53.693Z,32.10
2018-11-12T10:35:21.880Z,31.90
2018-11-12T10:37:50.046Z,31.80
2018-11-12T10:40:22.310Z,32.00
2018-11-12T10:42:50.495Z,32.80
2018-11-12T10:45:18.876Z,32.30
2018-11-12T10:47:48.057Z,32.40
2018-11-12T10:50:16.236Z,32.40
2018-11-12T10:52:44.398Z,32.50
2018-11-12T10:55:14.429Z,32.60
2018-11-12T10:57:43.199Z,32.90
2018-11-12T11:00:18.503Z,32.90
2018-11-12T11:02:52.070Z,33.70
2018-11-12T11:05:20.365Z,32.80
2018-11-12T11:07:49.205Z,33.00
2018-11-12T11:10:17.429Z,33.00
2018-11-12T11:12:46.389Z,32.60
2018-11-12T11:15:15.471Z,33.00
2018-11-12T11:17:43.807Z,33.80
2018-11-12T11:20:12.189Z,33.80
2018-11-12T11:22:40.498Z,34.10
2018-11-12T11:25:08.678Z,34.10
2018-11-12T11:27:37.238Z,33.20
2018-11-12T11:30:08.793Z,33.40
2018-11-12T11:32:36.994Z,33.90
2018-11-12T11:35:06.130Z,34.00
2018-11-12T11:37:34.297Z,33.80
2018-11-12T11:40:02.573Z,34.00
2018-11-12T11:42:30.709Z,34.30
2018-11-12T11:44:58.865Z,34.60
2018-11-12T11:47:27.122Z,35.40
2018-11-12T11:49:55.260Z,34.40
2018-11-12T11:52:23.393Z,34.60
2018-11-12T11:54:51.633Z,34.00
2018-11-12T11:57:19.989Z,34.20
2018-11-12T11:59:48.098Z,34.20
2018-11-12T12:02:16.324Z,34.30
2018-11-12T12:04:44.355Z,34.50
2018-11-12T12:07:12.549Z,34.50
2018-11-12T12:09:40.725Z,34.50
2018-11-12T12:12:08.921Z,35.00
2018-11-12T12:14:37.120Z,34.90
2018-11-12T12:17:05.498Z,35.00
2018-11-12T12:19:33.685Z,35.00
2018-11-12T12:22:01.874Z,34.50
2018-11-12T12:24:30.104Z,34.50
2018-11-12T12:26:58.505Z,33.90
2018-11-12T12:29:26.764Z,34.30
2018-11-12T12:31:54.901Z,34.20
2018-11-12T12:34:23.079Z,33.90
2018-11-12T12:36:51.449Z,33.90
2018-11-12T12:39:19.571Z,33.70
2018-11-12T12:41:47.884Z,33.50
2018-11-12T12:44:16.133Z,33.40
2018-11-12T12:46:44.237Z,33.30
2018-11-12T12:49:12.373Z,32.90
2018-11-12T12:51:40.573Z,32.10
2018-11-12T12:54:08.673Z,31.30
2018-11-12T12:56:37.155Z,30.70
2018-11-12T12:59:07.060Z,31.40
2018-11-12T13:01:36.856Z,31.70
2018-11-12T13:04:05.307Z,32.00
2018-11-12T13:06:35.857Z,31.60
2018-11-12T13:09:08.782Z,32.10
2018-11-12T13:11:37.836Z,30.00
2018-11-12T13:14:06.857Z,28.80
2018-11-12T13:16:35.023Z,28.50
2018-11-12T13:19:05.143Z,28.40
2018-11-12T13:21:33.771Z,28.30
2018-11-12T13:24:01.966Z,28.90
2018-11-12T13:26:30.394Z,28.90
2018-11-12T13:29:00.842Z,27.70
2018-11-12T13:31:29.018Z,25.00
2018-11-12T13:33:57.196Z,25.60
2018-11-12T13:36:25.342Z,24.80
2018-11-12T13:38:53.544Z,23.80
2018-11-12T13:41:21.723Z,22.40
2018-11-12T13:43:49.967Z,23.50
2018-11-12T13:46:18.143Z,23.30
2018-11-12T13:48:46.541Z,23.70
2018-11-12T13:51:14.874Z,23.90
2018-11-12T13:53:42.990Z,24.10
2018-11-12T13:56:11.138Z,24.50
2018-11-12T13:58:39.314Z,24.60
2018-11-12T14:01:07.441Z,25.00
2018-11-12T14:03:36.812Z,24.80
2018-11-12T14:06:07.973Z,25.00
2018-11-12T14:08:38.789Z,24.40
2018-11-12T14:11:09.454Z,24.30
2018-11-12T14:13:42.030Z,23.90
2018-11-12T14:16:12.616Z,24.70
2018-11-12T14:18:43.291Z,24.60
2018-11-12T14:21:14.525Z,25.00
2018-11-12T14:23:43.932Z,24.50
2018-11-12T14:26:12.310Z,24.50
2018-11-12T14:28:42.370Z,24.60
2018-11-12T14:31:11.902Z,24.30
2018-11-12T14:33:41.290Z,24.00
2018-11-12T14:36:09.863Z,24.30
2018-11-12T14:38:38.947Z,24.00
2018-11-12T14:41:08.613Z,23.90
2018-11-12T14:43:36.817Z,24.40
2018-11-12T14:46:06.817Z,24.30
2018-11-12T14:48:36.014Z,24.80
2018-11-12T14:51:05.094Z,24.60
2018-11-12T14:53:34.640Z,24.30
2018-11-12T14:56:02.851Z,24.80
2018-11-12T14:58:30.998Z,24.90
2018-11-12T15:00:59.165Z,24.60
2018-11-12T15:03:27.337Z,24.70
2018-11-12T15:05:55.765Z,24.10
2018-11-12T15:08:23.885Z,24.70
2018-11-12T15:10:52.035Z,24.40
2018-11-12T15:13:20.166Z,24.80
2018-11-12T15:15:48.337Z,24.90
2018-11-12T15:18:16.508Z,25.30
2018-11-12T15:20:44.657Z,25.40
2018-11-12T15:23:13.002Z,25.20
2018-11-12T15:25:41.339Z,25.50
2018-11-12T15:28:09.517Z,25.90
2018-11-12T15:30:37.709Z,25.80
2018-11-12T15:33:05.881Z,26.00
2018-11-12T15:35:34.011Z,26.50
2018-11-12T15:38:02.178Z,27.00
2018-11-12T15:40:30.341Z,27.40
2018-11-12T15:42:58.499Z,28.30
2018-11-12T15:45:26.632Z,28.40
2018-11-12T15:47:54.814Z,28.40
2018-11-12T15:50:28.519Z,28.60
2018-11-12T15:52:56.709Z,29.00
2018-11-12T15:55:25.005Z,29.00
2018-11-12T15:57:53.294Z,29.40
2018-11-12T16:00:21.329Z,29.40
2018-11-12T16:02:49.617Z,29.70
2018-11-12T16:05:17.777Z,29.60
2018-11-12T16:07:45.901Z,29.80
2018-11-12T16:10:16.165Z,29.90
2018-11-12T16:12:44.436Z,30.00
2018-11-12T16:15:13.671Z,30.00
2018-11-12T16:17:42.226Z,30.20
2018-11-12T16:20:14.498Z,30.30
2018-11-12T16:22:43.113Z,30.50
2018-11-12T16:25:11.289Z,30.60
2018-11-12T16:27:39.605Z,31.00
2018-11-12T16:30:08.806Z,31.10
2018-11-12T16:32:37.336Z,31.10
2018-11-12T16:35:06.869Z,31.20
2018-11-12T16:37:35.100Z,32.60
2018-11-12T16:40:03.489Z,32.20
2018-11-12T16:42:31.655Z,30.90
2018-11-12T16:44:59.859Z,30.70
2018-11-12T16:47:28.022Z,30.50
2018-11-12T16:49:56.395Z,30.10
2018-11-12T16:52:24.495Z,29.60
2018-11-12T16:54:52.633Z,30.40
2018-11-12T16:57:20.882Z,31.80
2018-11-12T16:59:49.057Z,32.00
2018-11-12T17:02:17.314Z,32.30
2018-11-12T17:04:45.505Z,33.00
2018-11-12T17:07:13.954Z,33.50
2018-11-12T17:09:42.172Z,33.30
2018-11-12T17:12:10.519Z,33.50
2018-11-12T17:14:38.678Z,33.90
2018-11-12T17:17:07.106Z,33.90
2018-11-12T17:19:35.302Z,33.90
2018-11-12T17:22:03.635Z,34.10
2018-11-12T17:24:31.777Z,34.20
2018-11-12T17:26:59.917Z,34.30
2018-11-12T17:29:28.070Z,34.20
2018-11-12T17:31:56.249Z,34.50
2018-11-12T17:34:24.414Z,34.10
2018-11-12T17:36:52.597Z,33.90
2018-11-12T17:39:20.777Z,33.50
2018-11-12T17:41:48.982Z,33.20
2018-11-12T17:44:17.162Z,32.50
2018-11-12T17:46:45.351Z,32.00
2018-11-12T17:49:13.534Z,31.40
2018-11-12T17:51:41.749Z,30.60
2018-11-12T17:54:09.951Z,30.00
2018-11-12T17:56:38.050Z,29.80
2018-11-12T17:59:06.722Z,29.50
2018-11-12T18:01:35.226Z,29.30
2018-11-12T18:04:03.296Z,29.10
2018-11-12T18:06:31.676Z,29.00
2018-11-12T18:08:59.818Z,29.00
2018-11-12T18:11:27.981Z,28.70
2018-11-12T18:13:56.132Z,29.20
2018-11-12T18:16:24.270Z,30.00
2018-11-12T18:18:52.461Z,30.30
2018-11-12T18:21:20.622Z,30.80
2018-11-12T18:23:48.785Z,31.20
2018-11-12T18:26:16.965Z,30.80
2018-11-12T18:28:45.154Z,31.30
2018-11-12T18:31:13.564Z,31.20
2018-11-12T18:33:41.556Z,31.30
2018-11-12T18:36:09.851Z,31.70
2018-11-12T18:38:38.022Z,31.40
2018-11-12T18:41:06.490Z,32.10
2018-11-12T18:43:36.175Z,33.00
2018-11-12T18:46:04.838Z,32.60
2018-11-12T18:48:34.698Z,32.70
2018-11-12T18:51:03.096Z,32.60
2018-11-12T18:53:31.584Z,32.70
2018-11-12T18:56:00.077Z,32.90
2018-11-12T18:58:29.635Z,32.90
2018-11-12T19:00:58.349Z,33.10
2018-11-12T19:03:26.950Z,33.50
2018-11-12T19:05:55.444Z,33.70
2018-11-12T19:08:23.862Z,33.60
2018-11-12T19:10:52.712Z,33.60
2018-11-12T19:13:21.409Z,34.00
2018-11-12T19:15:50.200Z,33.90
2018-11-12T19:18:18.579Z,33.80
2018-11-12T19:20:46.767Z,33.70
2018-11-12T19:23:14.969Z,33.60
2018-11-12T19:25:43.133Z,33.50
2018-11-12T19:28:11.333Z,33.60
2018-11-12T19:30:39.538Z,33.40
2018-11-12T19:33:07.686Z,33.50
2018-11-12T19:35:35.861Z,33.60
2018-11-12T19:38:04.071Z,33.60
2018-11-12T19:40:34.027Z,33.40
2018-11-12T19:43:02.141Z,33.40
2018-11-12T19:45:30.497Z,33.50
2018-11-12T19:47:58.657Z,33.30
2018-11-12T19:50:28.018Z,33.60
2018-11-12T19:52:57.217Z,33.90
2018-11-12T19:55:25.409Z,33.80
2018-11-12T19:57:53.577Z,33.90
2018-11-12T20:00:23.106Z,34.90
2018-11-12T20:02:52.477Z,34.60
2018-11-12T20:05:20.677Z,34.80
2018-11-12T20:07:48.809Z,34.80
2018-11-12T20:10:18.240Z,34.60
2018-11-12T20:12:46.507Z,34.50
2018-11-12T20:15:19.005Z,34.20
2018-11-12T20:17:48.184Z,34.30
2018-11-12T20:20:22.057Z,34.70
2018-11-12T20:22:50.677Z,34.60
2018-11-12T20:25:19.508Z,35.00
2018-11-12T20:27:48.236Z,35.10
2018-11-12T20:30:20.700Z,35.20
2018-11-12T20:32:48.865Z,35.40
2018-11-12T20:35:17.061Z,35.50
2018-11-12T20:37:45.243Z,35.90
2018-11-12T20:40:14.324Z,35.90
2018-11-12T20:42:43.405Z,35.60
2018-11-12T20:45:13.084Z,35.10
2018-11-12T20:47:41.793Z,34.90
2018-11-12T20:50:12.149Z,35.00
2018-11-12T20:52:40.491Z,35.00
2018-11-12T20:55:09.513Z,35.40
2018-11-12T20:57:38.520Z,35.60
2018-11-12T21:00:11.361Z,35.60
2018-11-12T21:02:40.252Z,35.80
2018-11-12T21:05:08.877Z,35.90
2018-11-12T21:07:37.330Z,35.70
2018-11-12T21:10:06.402Z,35.70
2018-11-12T21:12:34.545Z,36.00
2018-11-12T21:15:02.727Z,36.20
2018-11-12T21:17:31.110Z,36.30
2018-11-12T21:19:59.325Z,36.60
2018-11-12T21:22:27.497Z,36.60
2018-11-12T21:24:55.895Z,36.30
2018-11-12T21:27:24.066Z,35.90
2018-11-12T21:29:52.989Z,36.10
2018-11-12T21:32:21.185Z,36.20
2018-11-12T21:34:50.061Z,36.10
2018-11-12T21:37:18.322Z,36.20
2018-11-12T21:39:46.467Z,36.50
2018-11-12T21:42:14.901Z,36.50
2018-11-12T21:44:43.105Z,36.60
2018-11-12T21:47:11.285Z,36.50
2018-11-12T21:49:39.445Z,36.50
2018-11-12T21:52:07.598Z,36.50
2018-11-12T21:54:35.811Z,36.40
2018-11-12T21:57:03.969Z,36.90
2018-11-12T21:59:32.177Z,36.70
2018-11-12T22:02:00.314Z,36.40
2018-11-12T22:04:28.499Z,36.40
2018-11-12T22:06:56.677Z,36.40
2018-11-12T22:09:24.845Z,36.30
2018-11-12T22:11:52.997Z,36.30
2018-11-12T22:14:21.149Z,36.40
2018-11-12T22:16:49.370Z,36.90
2018-11-12T22:19:18.450Z,36.50
2018-11-12T22:21:46.608Z,36.40
2018-11-12T22:24:14.738Z,36.30
2018-11-12T22:26:42.937Z,35.60
2018-11-12T22:29:11.145Z,35.70
2018-11-12T22:31:39.270Z,35.80
2018-11-12T22:34:07.422Z,36.20
2018-11-12T22:36:35.710Z,36.20
2018-11-12T22:39:05.489Z,36.20
2018-11-12T22:41:33.653Z,36.20
2018-11-12T22:44:01.825Z,36.10
2018-11-12T22:46:30.237Z,36.10
2018-11-12T22:48:58.377Z,36.10
2018-11-12T22:51:26.529Z,36.10
2018-11-12T22:53:54.680Z,35.40
2018-11-12T22:56:22.829Z,35.70
2018-11-12T22:58:51.025Z,35.60
2018-11-12T23:01:19.202Z,35.60
2018-11-12T23:03:47.368Z,35.60
2018-11-12T23:06:15.551Z,35.50
2018-11-12T23:08:44.131Z,36.20
2018-11-12T23:11:12.302Z,35.60
2018-11-12T23:13:40.465Z,35.50
2018-11-12T23:16:08.605Z,35.20
2018-11-12T23:18:36.765Z,35.20
2018-11-12T23:21:05.076Z,35.30
2018-11-12T23:23:33.230Z,35.50
2018-11-12T23:26:01.370Z,35.30
2018-11-12T23:28:29.561Z,35.20
2018-11-12T23:30:57.750Z,35.90
2018-11-12T23:33:25.935Z,36.30
2018-11-12T23:35:54.133Z,37.30
2018-11-12T23:38:22.321Z,38.00
2018-11-12T23:40:50.608Z,39.20
2018-11-12T23:43:18.764Z,40.50
2018-11-12T23:45:46.949Z,41.00
2018-11-12T23:48:15.123Z,41.50
2018-11-12T23:50:43.304Z,42.10
2018-11-12T23:53:11.449Z,42.50
2018-11-12T23:55:39.638Z,43.00
2018-11-12T23:58:07.870Z,43.20
